Data for 01/16/2007

Time Sea-Level Adjusted Pressure Absolute Pressure Temperature Relative Humidity Dew Point   
(mb) (inHg) (mb) (inHg) (C) (F) (%) (C) (F)
00:05 1027 30.33 856 25.28 -12.1 10.2 73 -16 3.2
00:10 1027 30.33 856 25.28 -12.1 10.2 71 -16.3 2.7
00:15 1027 30.33 856 25.28 -12 10.4 70 -16.4 2.5
00:20 1027 30.33 856 25.28 -11.5 11.3 66 -16.6 2.2
00:25 1027 30.33 856 25.28 -11.6 11 66 -16.7 1.9
00:30 1027 30.33 856 25.28 -11.1 12 65 -16.4 2.5
00:35 1027 30.33 856 25.28 -10.9 12.3 69 -15.6 3.9
00:40 1027 30.33 856 25.28 -10.8 12.5 70 -15.3 4.5
00:45 1027 30.33 856 25.28 -11 12.2 72 -15 5
00:50 1027 30.33 856 25.28 -11 12.2 73 -15 5
00:55 1027 30.33 856 25.28 -11.4 11.5 73 -15.3 4.5
01:00 1027 30.33 856 25.28 -11.8 10.7 75 -15.4 4.4
01:05 1027 30.33 856 25.28 -11.9 10.6 75 -15.4 4.2
01:10 1027 30.33 856 25.28 -12 10.4 76 -15.5 4.1
01:15 1027 30.33 856 25.28 -12.3 9.9 77 -15.6 3.9
01:20 1027 30.33 856 25.28 -12.3 9.9 77 -15.6 3.9
01:25 1027 30.33 856 25.28 -12.2 10.1 77 -15.4 4.2
01:30 1027 30.33 856 25.28 -12.1 10.3 76 -15.5 4.1
01:35 1027 30.33 856 25.28 -12.1 10.2 77 -15.3 4.4
01:40 1027 30.33 856 25.28 -11.5 11.2 75 -15 4.9
01:45 1027 30.33 856 25.28 -11 12.3 72 -15.1 4.9
01:50 1027 30.33 856 25.28 -10.7 12.7 71 -14.9 5.1
01:55 1027 30.33 856 25.28 -10.7 12.7 71 -15 5
02:00 1026 30.3 856 25.28 -10.9 12.4 71 -15.1 4.8
02:05 1026 30.3 856 25.28 -11.1 12.1 74 -14.9 5.2
02:10 1026 30.3 856 25.28 -11.3 11.8 74 -15 5.1
02:15 1026 30.3 856 25.28 -11.7 10.9 76 -15.2 4.6
02:20 1026 30.3 856 25.28 -12.1 10.2 76 -15.4 4.2
02:25 1026 30.3 856 25.28 -12.2 10 77 -15.4 4.2
02:30 1026 30.3 856 25.28 -12.1 10.1 76 -15.5 4
02:35 1026 30.3 856 25.28 -12.3 10 77 -15.5 4.1
02:40 1026 30.3 856 25.28 -12.1 10.2 77 -15.4 4.2
02:45 1026 30.3 856 25.28 -12.2 10 77 -15.5 4.1
02:50 1026 30.3 856 25.28 -12.2 10.1 77 -15.5 4.2
02:55 1026 30.3 856 25.28 -12.2 10.1 77 -15.4 4.3
03:00 1026 30.3 855 25.25 -12.2 10.1 78 -15.3 4.5
03:05 1026 30.3 855 25.25 -11.9 10.5 77 -15.1 4.8
03:10 1026 30.3 855 25.25 -11.8 10.9 77 -15 5
03:15 1026 30.3 855 25.25 -11.9 10.7 77 -15.2 4.7
03:20 1026 30.3 855 25.25 -12.2 10 77 -15.4 4.2
03:25 1026 30.3 855 25.25 -12.2 10.1 77 -15.4 4.2
03:30 1026 30.3 855 25.25 -12.1 10.2 77 -15.4 4.2
03:35 1026 30.3 855 25.25 -12.1 10.1 77 -15.4 4.3
03:40 1026 30.3 855 25.25 -12.2 10 78 -15.4 4.3
03:45 1026 30.3 855 25.25 -12.2 10.1 77 -15.4 4.3
03:50 1026 30.3 855 25.25 -12.1 10.2 77 -15.3 4.5
03:55 1026 30.3 855 25.25 -12.1 10.3 77 -15.2 4.6
04:00 1026 30.3 855 25.25 -12.1 10.3 76 -15.4 4.2
04:05 1026 30.3 855 25.25 -12.3 9.8 80 -15.2 4.7
04:10 1026 30.3 855 25.25 -12.7 9.2 81 -15.2 4.6
04:15 1026 30.3 855 25.25 -12.7 9.1 85 -14.8 5.4
04:20 1026 30.3 855 25.25 -12.5 9.6 84 -14.6 5.6
04:25 1026 30.3 855 25.25 -12.4 9.6 82 -14.9 5.2
04:30 1026 30.3 855 25.25 -12.4 9.7 84 -14.6 5.7
04:35 1026 30.3 855 25.25 -12.4 9.7 81 -14.9 5.1
04:40 1026 30.3 855 25.25 -13 8.7 86 -14.8 5.3
04:45 1026 30.3 855 25.25 -12.7 9.1 89 -14.2 6.5
04:50 1026 30.3 855 25.25 -12.2 10 85 -14.2 6.4
04:55 1026 30.3 855 25.25 -11.8 10.8 84 -14 6.9
05:00 1026 30.3 855 25.25 -11.3 11.7 79 -14.3 6.3
05:05 1026 30.3 855 25.25 -11.4 11.5 77 -14.7 5.6
05:10 1026 30.3 855 25.25 -12 10.5 78 -15.1 4.8
05:15 1026 30.3 855 25.25 -12.4 9.8 79 -15.3 4.5
05:20 1026 30.3 855 25.25 -12.5 9.6 79 -15.4 4.4
05:25 1026 30.3 855 25.25 -12.7 9.1 81 -15.4 4.4
05:30 1026 30.3 855 25.25 -12.3 9.9 80 -15.1 4.8
05:35 1026 30.3 855 25.25 -12.1 10.2 78 -15.2 4.6
05:40 1026 30.3 855 25.25 -12.3 9.8 79 -15.3 4.5
05:45 1026 30.3 855 25.25 -12.3 9.8 79 -15.3 4.5
05:50 1026 30.3 855 25.25 -12.6 9.4 80 -15.3 4.4
05:55 1026 30.3 855 25.25 -12.5 9.6 80 -15.3 4.5
06:00 1026 30.3 855 25.25 -12.2 10 79 -15.2 4.7
06:05 1026 30.3 855 25.25 -12.3 9.9 78 -15.3 4.4
06:10 1026 30.3 855 25.25 -12.7 9.1 80 -15.6 4
06:15 1026 30.3 855 25.25 -13 8.5 81 -15.6 3.9
06:20 1026 30.3 855 25.25 -12.9 8.7 81 -15.6 3.9
06:25 1026 30.3 855 25.25 -13 8.5 81 -15.6 3.9
06:30 1026 30.3 855 25.25 -12.9 8.7 82 -15.4 4.2
06:35 1026 30.3 855 25.25 -12.6 9.4 81 -15.3 4.5
06:40 1026 30.3 855 25.25 -12.1 10.3 79 -15 5.1
06:45 1026 30.3 855 25.25 -11.3 11.6 76 -14.7 5.5
06:50 1026 30.3 855 25.25 -11.3 11.6 76 -14.8 5.4
06:55 1026 30.3 855 25.25 -11.5 11.2 77 -14.8 5.4
07:00 1026 30.3 855 25.25 -11.7 11 77 -15 5.1
07:05 1026 30.3 855 25.25 -12.1 10.2 78 -15.2 4.7
07:10 1026 30.3 855 25.25 -12 10.5 79 -14.9 5.2
07:15 1026 30.3 855 25.25 -11.1 12 76 -14.6 5.8
07:20 1026 30.3 855 25.25 -10.7 12.8 74 -14.4 6.1
07:25 1026 30.3 855 25.25 -11.4 11.4 75 -15.1 4.9
07:30 1026 30.3 855 25.25 -12.3 9.9 80 -15 4.9
07:35 1026 30.3 855 25.25 -12.1 10.2 79 -15.1 4.9
07:40 1026 30.3 855 25.25 -12.7 9.2 83 -14.9 5.2
07:45 1026 30.3 855 25.25 -12.7 9.1 86 -14.6 5.7
07:50 1026 30.3 855 25.25 -11.8 10.8 83 -14.2 6.5
07:55 1026 30.3 855 25.25 -12 10.3 84 -14.2 6.5
08:00 1026 30.3 855 25.25 -11.9 10.6 81 -14.5 6
08:05 1025 30.27 855 25.25 -11.7 10.9 81 -14.4 6.1
08:10 1026 30.3 855 25.25 -11.9 10.7 82 -14.4 6.1
08:15 1025 30.27 855 25.25 -12.1 10.2 80 -15 5
08:20 1025 30.27 855 25.25 -12 10.4 79 -14.9 5.1
08:25 1025 30.27 855 25.25 -11.6 11 76 -15 5
08:30 1025 30.27 855 25.25 -11.7 11 76 -15 4.9
08:35 1025 30.27 855 25.25 -11.6 11 75 -15.2 4.7
08:40 1025 30.27 855 25.25 -11.6 11.2 76 -15 4.9
08:45 1025 30.27 855 25.25 -11.2 11.8 74 -15 5
08:50 1025 30.27 854 25.22 -10.8 12.6 73 -14.8 5.4
08:55 1025 30.27 855 25.25 -10.7 12.7 73 -14.6 5.7
09:00 1025 30.27 854 25.22 -10.5 13.1 72 -14.6 5.7
09:05 1025 30.27 854 25.22 -10.2 13.6 71 -14.5 5.9
09:10 1025 30.27 854 25.22 -10.1 13.8 71 -14.4 6
09:15 1025 30.27 854 25.22 -9.9 14.1 70 -14.5 6
09:20 1025 30.27 854 25.22 -9.9 14.1 69 -14.6 5.7
09:25 1025 30.27 854 25.22 -9.9 14.3 69 -14.6 5.8
09:30 1025 30.27 854 25.22 -9.9 14.1 70 -14.4 6.1
09:35 1025 30.27 854 25.22 -10 13.9 73 -14 6.7
09:40 1025 30.27 854 25.22 -9.4 15.1 71 -13.8 7.2
09:45 1025 30.27 854 25.22 -8.9 16 70 -13.5 7.8
09:50 1025 30.27 854 25.22 -8.1 17.5 66 -13.4 7.9
09:55 1025 30.27 854 25.22 -7.9 17.9 65 -13.4 7.9
10:00 1025 30.27 854 25.22 -7.3 18.9 61 -13.7 7.4
10:05 1025 30.27 854 25.22 -6.5 20.3 58 -13.4 7.9
10:10 1025 30.27 854 25.22 -5.9 21.4 57 -13.2 8.3
10:15 1025 30.27 854 25.22 -5.4 22.2 55 -13.1 8.4
10:20 1025 30.27 854 25.22 -5.1 22.8 54 -13.1 8.5
10:25 1025 30.27 854 25.22 -5.4 22.3 56 -12.9 8.7
10:30 1025 30.27 854 25.22 -5.9 21.5 58 -12.8 9
10:35 1025 30.27 854 25.22 -5.6 21.9 55 -13.2 8.3
10:40 1025 30.27 854 25.22 -5.5 22.1 56 -13 8.6
10:45 1025 30.27 854 25.22 -5.6 21.9 57 -12.8 9
10:50 1025 30.27 854 25.22 -6.1 21 59 -12.9 8.7
10:55 1025 30.27 854 25.22 -5.9 21.3 56 -13.3 8
11:00 1025 30.27 854 25.22 -5.2 22.7 54 -13.1 8.4
11:05 1025 30.27 854 25.22 -5 22.9 53 -13.1 8.4
11:10 1025 30.27 854 25.22 -4.4 24.2 51 -13 8.6
11:15 1025 30.27 854 25.22 -4.1 24.6 53 -12.4 9.7
11:20 1025 30.27 854 25.22 -4.4 24.2 53 -12.5 9.5
11:25 1025 30.27 854 25.22 -4.6 23.7 54 -12.6 9.2
11:30 1024 30.24 854 25.22 -4.7 23.6 55 -12.5 9.5
11:35 1024 30.24 853 25.19 -4.7 23.6 53 -12.9 8.9
11:40 1024 30.24 853 25.19 -4 24.7 53 -12.3 9.8
11:45 1024 30.24 853 25.19 -4.3 24.3 53 -12.5 9.6
11:50 1024 30.24 853 25.19 -3.9 25 50 -12.8 8.9
11:55 1024 30.24 853 25.19 -3.4 25.9 49 -12.7 9.2
12:00 1024 30.24 853 25.19 -3.5 25.8 50 -12.4 9.6
12:05 1024 30.24 853 25.19 -3.6 25.6 50 -12.5 9.5
12:10 1024 30.24 853 25.19 -3.4 25.9 50 -12.4 9.6
12:15 1024 30.24 853 25.19 -3.5 25.7 52 -12.1 10.3
12:20 1024 30.24 853 25.19 -3.5 25.8 50 -12.5 9.5
12:25 1024 30.24 853 25.19 -3.1 26.3 48 -12.6 9.3
12:30 1023 30.21 853 25.19 -3.2 26.3 50 -12.1 10.3
12:35 1023 30.21 853 25.19 -2.9 26.8 48 -12.5 9.5
12:40 1023 30.21 852 25.16 -2.8 26.9 47 -12.6 9.4
12:45 1023 30.21 852 25.16 -2.8 26.9 46 -12.8 9
12:50 1023 30.21 852 25.16 -2.6 27.3 47 -12.4 9.7
12:55 1023 30.21 852 25.16 -2.5 27.6 47 -12.4 9.7
13:00 1023 30.21 852 25.16 -2.7 27.1 47 -12.4 9.6
13:05 1023 30.21 852 25.16 -2.4 27.6 46 -12.6 9.4
13:10 1023 30.21 852 25.16 -1.9 28.6 45 -12.4 9.7
13:15 1023 30.21 852 25.16 -2.1 28.3 46 -12.2 10
13:20 1022 30.18 852 25.16 -3.7 25.3 49 -12.9 8.8
13:25 1022 30.18 852 25.16 -2.9 26.8 47 -12.8 9
13:30 1022 30.18 851 25.13 -2.2 28 47 -12 10.4
13:35 1022 30.18 851 25.13 -2.8 27 49 -12.2 10
13:40 1022 30.18 851 25.13 -2.4 27.6 44 -13 8.7
13:45 1022 30.18 851 25.13 -1.3 29.6 42 -12.6 9.3
13:50 1022 30.18 851 25.13 -1.8 28.8 45 -12.2 10
13:55 1022 30.18 851 25.13 -1.4 29.5 44 -12.2 10
14:00 1022 30.18 851 25.13 -1.4 29.5 45 -12 10.5
14:05 1022 30.18 851 25.13 -2.2 28.1 46 -12.3 9.9
14:10 1022 30.18 851 25.13 -1.9 28.6 43 -12.9 8.8
14:15 1022 30.18 851 25.13 -1.9 28.6 42 -13 8.5
14:20 1021 30.15 851 25.13 -2.4 27.7 47 -12.2 10.1
14:25 1021 30.15 851 25.13 -2.4 27.7 48 -12 10.4
14:30 1021 30.15 850 25.1 -1.9 28.6 46 -12.2 10.1
14:35 1021 30.15 850 25.1 -1.5 29.4 45 -11.9 10.5
14:40 1021 30.15 850 25.1 -1.3 29.7 45 -11.6 11
14:45 1021 30.15 850 25.1 -1.2 29.8 44 -11.9 10.5
14:50 1021 30.15 850 25.1 -0.9 30.4 43 -11.9 10.7
14:55 1021 30.15 850 25.1 -1.3 29.7 44 -12 10.4
15:00 1021 30.15 850 25.1 -1.8 28.7 47 -11.7 11
15:05 1021 30.15 850 25.1 -2.1 28.3 47 -12.1 10.3
15:10 1021 30.15 850 25.1 -2.1 28.2 47 -12.1 10.2
15:15 1021 30.15 850 25.1 -1.6 29.1 44 -12.4 9.6
15:20 1021 30.15 850 25.1 -1.8 28.7 47 -11.8 10.8
15:25 1021 30.15 850 25.1 -1.5 29.3 43 -12.4 9.6
15:30 1021 30.15 850 25.1 -1.7 28.9 45 -12.2 10
15:35 1021 30.15 850 25.1 -1.9 28.6 46 -12 10.4
15:40 1021 30.15 850 25.1 -2.1 28.2 46 -12.1 10.2
15:45 1021 30.15 850 25.1 -2.5 27.5 47 -12.2 10
15:50 1021 30.15 850 25.1 -2.3 27.9 49 -11.7 11
15:55 1021 30.15 850 25.1 -2.5 27.5 49 -11.8 10.7
16:00 1020 30.12 850 25.1 -2.6 27.4 50 -11.5 11.2
16:05 1020 30.12 850 25.1 -2.8 26.9 50 -11.8 10.7
16:10 1020 30.12 850 25.1 -3 26.6 52 -11.6 11.2
16:15 1020 30.12 850 25.1 -3 26.6 52 -11.6 11.1
16:20 1020 30.12 849 25.07 -2.9 26.8 51 -11.6 11.2
16:25 1020 30.12 849 25.07 -2.8 27 50 -11.8 10.7
16:30 1020 30.12 849 25.07 -3.3 26.1 53 -11.6 11.1
16:35 1020 30.12 849 25.07 -3.4 25.9 53 -11.7 11
16:40 1020 30.12 849 25.07 -3.3 26.1 52 -11.7 11
16:45 1020 30.12 849 25.07 -3.2 26.2 53 -11.5 11.3
16:50 1020 30.12 849 25.07 -3.4 25.9 55 -11.2 11.8
16:55 1020 30.12 849 25.07 -3.9 25 58 -11 12.2
17:00 1020 30.12 849 25.07 -4.6 23.7 61 -11.1 12
17:05 1020 30.12 849 25.07 -5 23.1 63 -11.1 12.1
17:10 1020 30.12 849 25.07 -4.9 23.1 63 -10.9 12.3
17:15 1020 30.12 849 25.07 -4.8 23.3 63 -10.9 12.4
17:20 1020 30.12 849 25.07 -4.9 23.1 63 -10.9 12.3
17:25 1020 30.12 849 25.07 -5 23 63 -11 12.2
17:30 1019 30.09 849 25.07 -4.9 23.2 63 -11 12.3
17:35 1019 30.09 849 25.07 -4.9 23.2 63 -10.9 12.3
17:40 1019 30.09 849 25.07 -4.9 23.1 63 -10.9 12.3
17:45 1019 30.09 849 25.07 -4.9 23.2 63 -10.9 12.3
17:50 1019 30.09 849 25.07 -4.8 23.3 62 -11 12.2
17:55 1019 30.09 849 25.07 -4.9 23.1 63 -10.9 12.4
18:00 1019 30.09 849 25.07 -5.2 22.7 64 -10.9 12.5
18:05 1019 30.09 849 25.07 -5.5 22.1 66 -10.8 12.5
18:10 1019 30.09 848 25.04 -6.2 20.9 69 -10.9 12.4
18:15 1019 30.09 848 25.04 -6.2 20.8 69 -11 12.3
18:20 1019 30.09 848 25.04 -6.2 20.8 69 -11 12.2
18:25 1019 30.09 848 25.04 -6.4 20.5 70 -11 12.1
18:30 1019 30.09 848 25.04 -6.5 20.3 70 -11 12.1
18:35 1019 30.09 848 25.04 -6.8 19.8 72 -11 12.2
18:40 1019 30.09 848 25.04 -7 19.5 73 -11.1 12.1
18:45 1019 30.09 848 25.04 -7 19.4 72 -11.2 11.9
18:50 1019 30.09 848 25.04 -6.9 19.5 70 -11.5 11.3
18:55 1019 30.09 848 25.04 -7 19.4 70 -11.5 11.3
19:00 1019 30.09 848 25.04 -7.3 18.8 73 -11.4 11.4
19:05 1019 30.09 848 25.04 -7.2 19 70 -11.9 10.7
19:10 1019 30.09 848 25.04 -7 19.4 69 -11.8 10.8
19:15 1019 30.09 848 25.04 -6.9 19.5 69 -11.6 11.1
19:20 1019 30.09 848 25.04 -7.2 19.1 73 -11.2 11.9
19:25 1019 30.09 848 25.04 -7.5 18.6 73 -11.4 11.4
19:30 1019 30.09 848 25.04 -8.2 17.2 83 -10.6 12.9
19:35 1019 30.09 848 25.04 -8.5 16.8 84 -10.7 12.7
19:40 1019 30.09 848 25.04 -7.9 17.8 79 -10.9 12.4
19:45 1019 30.09 848 25.04 -8.1 17.4 81 -10.8 12.6
19:50 1019 30.09 848 25.04 -8.3 17.2 79 -11.2 11.8
19:55 1019 30.09 848 25.04 -7.3 19 75 -10.9 12.4
20:00 1019 30.09 848 25.04 -7.4 18.8 78 -10.6 12.9
20:05 1019 30.09 848 25.04 -8.2 17.3 84 -10.4 13.3
20:10 1019 30.09 848 25.04 -7.3 18.8 81 -10.1 13.8
20:15 1019 30.09 848 25.04 -7.5 18.4 78 -10.8 12.6
20:20 1018 30.06 848 25.04 -7.4 18.6 75 -11.1 12.1
20:25 1018 30.06 848 25.04 -7.4 18.7 74 -11.2 11.8
20:30 1018 30.06 848 25.04 -7.2 19 77 -10.5 13
20:35 1018 30.06 848 25.04 -6.8 19.8 75 -10.4 13.2
20:40 1018 30.06 848 25.04 -6.5 20.3 71 -10.8 12.5
20:45 1018 30.06 847 25.01 -6 21.2 70 -10.6 13
20:50 1018 30.06 847 25.01 -6.1 21.1 69 -10.8 12.6
20:55 1018 30.06 847 25.01 -6.7 20 72 -10.9 12.4
21:00 1018 30.06 847 25.01 -7.1 19.3 74 -11 12.2
21:05 1018 30.06 847 25.01 -7 19.4 73 -11 12.2
21:10 1018 30.06 847 25.01 -7.1 19.3 74 -10.9 12.4
21:15 1018 30.06 847 25.01 -7.1 19.3 75 -10.8 12.6
21:20 1018 30.06 847 25.01 -6.8 19.8 73 -10.8 12.6
21:25 1018 30.06 847 25.01 -6.7 19.9 73 -10.8 12.5
21:30 1018 30.06 847 25.01 -6.6 20.1 71 -11.1 12.1
21:35 1018 30.06 847 25.01 -6.4 20.5 71 -10.9 12.4
21:40 1018 30.06 847 25.01 -6.4 20.6 72 -10.6 12.9
21:45 1018 30.06 847 25.01 -6.6 20.2 73 -10.7 12.8
21:50 1018 30.06 847 25.01 -6.8 19.7 73 -10.9 12.4
21:55 1018 30.06 847 25.01 -7 19.3 73 -11.2 11.9
22:00 1018 30.06 847 25.01 -7.1 19.2 72 -11.3 11.7
22:05 1018 30.06 847 25.01 -7.3 19 77 -10.7 12.8
22:10 1018 30.06 847 25.01 -7.5 18.5 78 -10.6 12.8
22:15 1018 30.06 847 25.01 -7.3 18.8 79 -10.3 13.4
22:20 1018 30.06 847 25.01 -6.7 19.9 73 -10.7 12.7
22:25 1018 30.06 847 25.01 -6.4 20.5 75 -10.2 13.7
22:30 1018 30.06 847 25.01 -6.6 20.2 74 -10.4 13.3
22:35 1018 30.06 847 25.01 -6.4 20.5 73 -10.4 13.2
22:40 1018 30.06 847 25.01 -6.9 19.5 81 -9.8 14.4
22:45 1018 30.06 847 25.01 -7.6 18.3 83 -10 13.9
22:50 1018 30.06 847 25.01 -7.9 17.8 85 -10 14
22:55 1018 30.06 847 25.01 -8.1 17.3 83 -10.5 13.1
23:00 1018 30.06 847 25.01 -7.9 17.8 82 -10.4 13.3
23:05 1018 30.06 847 25.01 -7.1 19.2 77 -10.4 13.2
23:10 1018 30.06 847 25.01 -7 19.4 76 -10.6 12.9
23:15 1018 30.06 847 25.01 -6.9 19.6 77 -10.3 13.5
23:20 1018 30.06 847 25.01 -6.6 20.2 74 -10.5 13.2
23:25 1018 30.06 847 25.01 -6.3 20.6 72 -10.5 13.1
23:30 1018 30.06 847 25.01 -6.8 19.8 74 -10.7 12.7
23:35 1018 30.06 847 25.01 -7 19.4 73 -11 12.1
23:40 1018 30.06 847 25.01 -6.8 19.7 72 -11.1 12.1
23:45 1018 30.06 847 25.01 -6.6 20.1 71 -11 12.2
23:50 1018 30.06 847 25.01 -6.3 20.7 70 -10.8 12.5
23:55 1018 30.06 847 25.01 -6.2 20.8 70 -10.8 12.6
24:00 1018 30.06 847 25.01 -6.2 20.8 70 -10.8 12.6